Terminal Aerodrome Forecast
Issued by NWS Jackson, MS

Home | Current Version | Previous Version | Text Only | Print | Product List | Glossary On
Versions: 1 2 3 4 5 6 7 8 9 10 11 12 13 14 15 16 17 18 19 20 21
000
FTUS44 KMEG 020712 AAA
TAFTUP
TAF AMD
KTUP 020712Z 0207/0306 VRB03KT 5SM BR FEW035 BKN050
      TEMPO 0207/0211 OVC005
     FM021100 VRB03KT P6SM -SHRA VCTS SCT015 BKN035CB
      TEMPO 0215/0218 VRB10KT 5SM -TSRA BKN015CB
     FM021800 02006KT 5SM -SHRA BR SCT030 OVC050
     FM030300 36006KT P6SM SCT030=

USA.gov is the U.S. government's official web portal to all federal, state and local government web resources and services.